createdAt,value
2023-01-11T00:04:06.587Z,8.85
2023-01-11T00:09:08.876Z,13.10
2023-01-11T00:14:11.011Z,9.77
2023-01-11T00:19:13.259Z,8.93
2023-01-11T00:24:16.208Z,6.18
2023-01-11T00:29:18.398Z,11.70
2023-01-11T00:34:21.104Z,10.35
2023-01-11T00:44:44.195Z,7.90
2023-01-11T00:49:46.334Z,4.25
2023-01-11T00:54:48.748Z,8.50
2023-01-11T00:59:50.960Z,7.55
2023-01-11T01:04:53.504Z,6.22
2023-01-11T01:09:56.005Z,4.70
2023-01-11T01:14:58.110Z,10.40
2023-01-11T01:20:00.248Z,3.80
2023-01-11T01:25:02.359Z,6.32
2023-01-11T01:30:06.288Z,5.43
2023-01-11T01:35:09.198Z,4.45
2023-01-11T01:40:12.186Z,5.45
2023-01-11T01:45:24.258Z,8.70
2023-01-11T01:50:32.801Z,4.65
2023-01-11T01:55:38.858Z,6.75
2023-01-11T02:00:44.318Z,3.60
2023-01-11T02:05:47.602Z,11.15
2023-01-11T02:10:50.840Z,2.93
2023-01-11T02:16:07.891Z,5.55
2023-01-11T02:21:26.041Z,4.00
2023-01-11T02:26:31.189Z,6.10
2023-01-11T02:32:17.296Z,3.45
2023-01-11T02:37:42.730Z,7.30
2023-01-11T02:43:11.572Z,4.65
2023-01-11T02:48:35.664Z,6.30
2023-01-11T02:53:55.413Z,1.30
2023-01-11T02:58:58.561Z,2.20
2023-01-11T03:04:00.664Z,4.10
2023-01-11T03:09:30.813Z,3.30
2023-01-11T03:14:46.844Z,6.50
2023-01-11T03:19:54.662Z,2.37
2023-01-11T03:25:24.622Z,4.80
2023-01-11T03:30:32.149Z,2.85
2023-01-11T03:35:48.450Z,2.67
2023-01-11T03:41:01.197Z,2.57
2023-01-11T03:46:03.237Z,5.60
2023-01-11T03:51:10.161Z,2.35
2023-01-11T03:56:16.418Z,9.30
2023-01-11T04:01:19.072Z,1.63
2023-01-11T04:11:23.919Z,2.80
2023-01-11T04:16:26.543Z,2.55
2023-01-11T04:26:31.435Z,3.80
2023-01-11T04:31:33.596Z,7.55
2023-01-11T04:36:35.736Z,1.45
2023-01-11T04:41:57.330Z,4.60
2023-01-11T04:46:59.466Z,4.00
2023-01-11T04:52:01.567Z,7.20
2023-01-11T04:57:03.860Z,4.53
2023-01-11T05:02:06.825Z,2.00
2023-01-11T05:07:09.885Z,1.45
2023-01-11T05:12:12.454Z,1.23
2023-01-11T05:22:17.201Z,2.27
2023-01-11T05:27:19.284Z,4.05
2023-01-11T05:32:21.364Z,3.20
2023-01-11T05:37:23.492Z,2.90
2023-01-11T05:42:25.612Z,2.40
2023-01-11T05:47:28.165Z,2.90
2023-01-11T05:52:30.527Z,2.40
2023-01-11T05:57:33.083Z,3.83
2023-01-11T06:02:35.756Z,2.37
2023-01-11T06:07:38.354Z,2.15
2023-01-11T06:12:40.492Z,4.22
2023-01-11T06:17:42.653Z,4.90
2023-01-11T06:22:44.753Z,1.80
2023-01-11T06:27:47.305Z,1.65
2023-01-11T06:32:49.815Z,1.95
2023-01-11T06:37:52.004Z,3.08
2023-01-11T06:42:54.532Z,1.77
2023-01-11T06:47:56.965Z,2.00
2023-01-11T06:53:01.952Z,1.58
2023-01-11T06:58:04.217Z,1.20
2023-01-11T07:03:06.889Z,6.50
2023-01-11T07:13:12.108Z,3.35
2023-01-11T07:18:14.768Z,5.25
2023-01-11T07:28:19.588Z,1.35
2023-01-11T07:33:22.589Z,1.40
2023-01-11T07:38:25.181Z,2.45
2023-01-11T07:43:27.416Z,5.62
2023-01-11T07:48:30.811Z,2.22
2023-01-11T07:53:33.424Z,8.30
2023-01-11T08:03:37.802Z,3.00
2023-01-11T08:08:40.834Z,1.35
2023-01-11T08:14:01.457Z,2.00
2023-01-11T08:19:04.397Z,2.55
2023-01-11T08:24:06.760Z,5.05
2023-01-11T08:29:09.975Z,3.95
2023-01-11T08:34:12.109Z,2.35
2023-01-11T08:39:14.589Z,1.50
2023-01-11T08:44:29.013Z,1.12
2023-01-11T08:49:35.378Z,2.45
2023-01-11T08:54:37.585Z,0.85
2023-01-11T08:59:39.766Z,0.52
2023-01-11T09:04:42.254Z,2.00
2023-01-11T09:09:44.417Z,2.95
2023-01-11T09:14:46.610Z,2.67
2023-01-11T09:19:48.779Z,5.45
2023-01-11T09:24:51.364Z,3.15
2023-01-11T09:34:58.262Z,7.90
2023-01-11T09:40:01.737Z,5.50
2023-01-11T09:45:09.340Z,5.95
2023-01-11T09:50:15.019Z,11.13
2023-01-11T09:55:23.118Z,4.55
2023-01-11T10:00:36.113Z,4.70
2023-01-11T10:06:06.878Z,2.28
2023-01-11T10:18:25.527Z,3.35
2023-01-11T10:22:58.259Z,2.30
2023-01-11T10:28:04.614Z,1.30
2023-01-11T10:33:25.303Z,0.57
2023-01-11T10:38:49.859Z,8.60
2023-01-11T10:44:18.979Z,3.50
2023-01-11T10:49:41.121Z,3.10
2023-01-11T10:54:47.413Z,3.33
2023-01-11T11:00:09.256Z,3.35
2023-01-11T11:05:30.271Z,1.03
2023-01-11T11:10:51.226Z,2.93
2023-01-11T11:16:10.443Z,1.03
2023-01-11T11:21:36.973Z,1.23
2023-01-11T11:26:53.806Z,1.33
2023-01-11T11:31:58.719Z,0.87
2023-01-11T11:37:01.467Z,1.37
2023-01-11T11:47:17.499Z,1.57
2023-01-11T11:52:19.904Z,2.30
2023-01-11T11:57:33.964Z,1.00
2023-01-11T12:02:38.729Z,0.47
2023-01-11T12:07:54.650Z,1.17
2023-01-11T12:13:03.238Z,0.10
2023-01-11T12:18:26.999Z,0.37
2023-01-11T12:23:29.576Z,3.53
2023-01-11T12:28:37.160Z,2.30
2023-01-11T12:33:58.725Z,1.23
2023-01-11T12:39:05.033Z,0.70
2023-01-11T12:44:12.126Z,0.82
2023-01-11T12:49:30.969Z,0.15
2023-01-11T12:55:09.706Z,0.43
2023-01-11T13:00:14.735Z,2.45
2023-01-11T13:05:26.654Z,0.10
2023-01-11T13:10:31.826Z,0.77
2023-01-11T13:15:43.982Z,0.77
2023-01-11T13:21:25.936Z,0.83
2023-01-11T13:26:39.009Z,0.98
2023-01-11T13:36:48.847Z,0.20
2023-01-11T13:41:53.771Z,2.55
2023-01-11T13:47:01.743Z,2.17
2023-01-11T13:52:12.258Z,2.15
2023-01-11T13:57:30.355Z,3.87
2023-01-11T14:02:51.015Z,1.20
2023-01-11T14:08:00.880Z,2.45
2023-01-11T14:13:50.876Z,1.12
2023-01-11T14:19:31.623Z,1.98
2023-01-11T14:24:37.072Z,6.77
2023-01-11T14:29:48.154Z,4.53
2023-01-11T14:35:11.914Z,6.23
2023-01-11T14:40:34.268Z,3.17
2023-01-11T14:45:56.386Z,9.17
2023-01-11T14:51:17.114Z,7.13
2023-01-11T14:56:41.980Z,7.87
2023-01-11T15:02:03.119Z,8.17
2023-01-11T15:07:41.874Z,7.37
2023-01-11T15:12:44.056Z,3.60
2023-01-11T15:18:12.461Z,6.47
2023-01-11T15:23:17.476Z,5.20
2023-01-11T15:28:38.933Z,5.40
2023-01-11T15:33:48.724Z,9.60
2023-01-11T15:38:56.695Z,7.50
2023-01-11T15:44:20.350Z,7.30
2023-01-11T15:55:28.596Z,5.23
2023-01-11T16:00:36.165Z,10.15
2023-01-11T16:05:44.042Z,3.70
2023-01-11T16:11:08.263Z,11.63
2023-01-11T16:16:28.982Z,5.07
2023-01-11T16:21:36.472Z,10.65
2023-01-11T16:26:41.003Z,6.85
2023-01-11T16:32:02.884Z,21.95
2023-01-11T16:37:22.974Z,10.30
2023-01-11T16:42:29.708Z,16.40
2023-01-11T16:47:31.879Z,19.85
2023-01-11T16:52:38.815Z,14.60
2023-01-11T16:57:45.532Z,24.90
2023-01-11T17:02:50.064Z,11.95
2023-01-11T17:07:52.162Z,9.50
2023-01-11T17:13:33.958Z,11.63
2023-01-11T17:18:41.063Z,10.20
2023-01-11T17:23:45.622Z,9.90
2023-01-11T17:28:50.116Z,16.90
2023-01-11T17:34:25.759Z,6.45
2023-01-11T17:39:34.534Z,6.95
2023-01-11T17:44:55.404Z,5.80
2023-01-11T17:50:01.035Z,7.13
2023-01-11T17:55:19.319Z,6.00
2023-01-11T18:00:28.026Z,10.87
2023-01-11T18:05:30.540Z,13.27
2023-01-11T18:10:36.196Z,9.55
2023-01-11T18:15:38.431Z,11.70
2023-01-11T18:20:41.112Z,12.50
2023-01-11T18:30:54.413Z,10.27
2023-01-11T18:35:59.746Z,8.75
2023-01-11T18:41:27.164Z,9.97
2023-01-11T18:46:29.280Z,9.35
2023-01-11T18:51:40.170Z,13.32
2023-01-11T18:56:42.675Z,13.10
2023-01-11T19:01:56.629Z,10.68
2023-01-11T19:07:06.908Z,9.63
2023-01-11T19:12:09.024Z,10.18
2023-01-11T19:17:12.307Z,12.48
2023-01-11T19:22:14.654Z,15.50
2023-01-11T19:27:16.921Z,9.35
2023-01-11T19:32:23.637Z,10.27
2023-01-11T19:37:27.633Z,9.10
2023-01-11T19:42:30.079Z,6.70
2023-01-11T19:47:32.247Z,5.85
2023-01-11T19:52:34.344Z,10.70
2023-01-11T19:57:36.716Z,8.95
2023-01-11T20:02:39.261Z,7.90
2023-01-11T20:12:43.501Z,12.20
2023-01-11T20:17:45.617Z,5.35
2023-01-11T20:22:47.760Z,7.50
2023-01-11T20:27:49.841Z,8.13
2023-01-11T20:32:51.968Z,6.53
2023-01-11T20:37:54.076Z,6.05
2023-01-11T20:42:56.143Z,13.40
2023-01-11T20:47:59.327Z,7.87
2023-01-11T20:53:04.081Z,10.23
2023-01-11T20:58:06.167Z,16.70
2023-01-11T21:03:08.752Z,19.95
2023-01-11T21:13:13.421Z,11.05
2023-01-11T21:18:15.946Z,11.57
2023-01-11T21:28:20.304Z,14.70
2023-01-11T21:33:22.456Z,14.02
2023-01-11T21:38:24.601Z,14.25
2023-01-11T21:43:27.313Z,8.50
2023-01-11T21:48:29.882Z,6.95
2023-01-11T21:53:33.046Z,14.70
2023-01-11T21:58:36.018Z,14.50
2023-01-11T22:03:38.311Z,15.55
2023-01-11T22:08:41.569Z,14.10
2023-01-11T22:13:43.960Z,11.77
2023-01-11T22:18:46.379Z,8.57
2023-01-11T22:23:52.429Z,11.57
2023-01-11T22:29:15.034Z,15.95
2023-01-11T22:34:18.533Z,12.73
2023-01-11T22:39:21.490Z,17.45
2023-01-11T22:44:23.597Z,14.00
2023-01-11T22:49:26.508Z,14.48
2023-01-11T22:54:29.087Z,14.30
2023-01-11T22:59:31.299Z,15.18
2023-01-11T23:04:33.879Z,5.53
2023-01-11T23:09:36.342Z,14.95
2023-01-11T23:14:38.821Z,11.00
2023-01-11T23:19:41.674Z,7.32
2023-01-11T23:24:43.854Z,8.70
2023-01-11T23:29:46.005Z,9.68
2023-01-11T23:34:48.153Z,9.57
2023-01-11T23:39:50.674Z,13.55
2023-01-11T23:49:57.652Z,14.80
2023-01-11T23:55:00.183Z,12.70
